Rawson, Ohio
Current Conditions -  °F | °C
As of 2:53 AM on Friday 19 Dec 2014 (Local Time) from KFDY Reporting Station
Haze Haze  
Wind Chill: 21°   Ceiling: 1100
Heat Index: 29°   Visibility: 6mi
Dew Point: 24°   Wind: 8mph
Humidity: 82%   Direction: 260°W
Pressure: 30.2"   Gusts: NA
Location:  40.96°N, 83.78°W
Report Text: KFDY 190753Z AUTO 26007KT 6SM HZ OVC011 M02/M04 A3020 RMK AO2 SLP234 T10171044
Loading
Personal Weather Stations






























Interactive Weather Map New forecast layout! Learn more

10-Day Weather Forecast

Advertisements
Track Severe Weather on mobile